createdAt,value
2022-10-17T00:00:11.413Z,100918.19
2022-10-17T00:02:13.870Z,100926.31
2022-10-17T00:04:16.085Z,100917.34
2022-10-17T00:06:18.172Z,100926.34
2022-10-17T00:08:20.220Z,100930.91
2022-10-17T00:10:22.813Z,100920.16
2022-10-17T00:12:24.892Z,100933.81
2022-10-17T00:14:26.981Z,100937.47
2022-10-17T00:16:32.920Z,100938.34
2022-10-17T00:18:34.800Z,100940.25
2022-10-17T00:20:36.942Z,100943.00
2022-10-17T00:22:39.045Z,100943.13
2022-10-17T00:24:41.118Z,100940.41
2022-10-17T00:26:43.007Z,100939.56
2022-10-17T00:28:49.840Z,100937.09
2022-10-17T00:30:59.538Z,100943.50
2022-10-17T00:33:01.528Z,100949.81
2022-10-17T00:35:04.304Z,100948.97
2022-10-17T00:37:06.372Z,100952.63
2022-10-17T00:39:09.653Z,100946.31
2022-10-17T00:41:14.791Z,100949.13
2022-10-17T00:43:19.196Z,100958.31
2022-10-17T00:45:27.873Z,100957.59
2022-10-17T00:47:33.150Z,100960.28
2022-10-17T00:49:37.189Z,100958.63
2022-10-17T00:51:47.438Z,100953.31
2022-10-17T00:53:51.868Z,100960.44
2022-10-17T00:55:54.586Z,100956.91
2022-10-17T00:57:58.331Z,100959.72
2022-10-17T01:00:03.643Z,100958.78
2022-10-17T01:02:17.655Z,100958.16
2022-10-17T01:04:19.988Z,100961.75
2022-10-17T01:06:21.801Z,100958.28
2022-10-17T01:08:24.487Z,100963.72
2022-10-17T01:10:54.943Z,100953.22
2022-10-17T01:13:09.466Z,100967.69
2022-10-17T01:15:39.290Z,100964.97
2022-10-17T01:17:53.374Z,100968.66
2022-10-17T01:20:33.840Z,100968.81
2022-10-17T01:22:45.112Z,100974.22
2022-10-17T01:25:20.965Z,100960.88
2022-10-17T01:28:05.396Z,100960.22
2022-10-17T01:30:22.456Z,100958.47
2022-10-17T01:32:45.783Z,100960.41
2022-10-17T01:34:59.944Z,100966.81
2022-10-17T01:37:22.905Z,100970.41
2022-10-17T01:39:38.383Z,100965.00
2022-10-17T01:41:58.121Z,100973.22
2022-10-17T01:44:10.218Z,100974.25
2022-10-17T01:46:16.896Z,100975.22
2022-10-17T01:48:23.254Z,100979.09
2022-10-17T01:50:31.479Z,100982.00
2022-10-17T01:52:42.351Z,100985.69
2022-10-17T01:54:49.743Z,100990.00
2022-10-17T01:56:58.928Z,100986.31
2022-10-17T01:59:05.737Z,100982.63
2022-10-17T02:01:12.392Z,100992.50
2022-10-17T02:03:18.965Z,100981.69
2022-10-17T02:05:39.118Z,100986.22
2022-10-17T02:07:42.449Z,100989.66
2022-10-17T02:09:45.002Z,100990.63
2022-10-17T02:12:04.730Z,100983.50
2022-10-17T02:14:09.750Z,100977.84
2022-10-17T02:16:32.564Z,100981.75
2022-10-17T02:18:42.133Z,100981.78
2022-10-17T02:20:56.519Z,100973.81
2022-10-17T02:25:37.006Z,100984.59
2022-10-17T02:27:59.240Z,100988.41
2022-10-17T02:30:23.737Z,100980.31
2022-10-17T02:32:40.308Z,100984.06
2022-10-17T02:34:47.784Z,100974.28
2022-10-17T02:36:55.417Z,100984.09
2022-10-17T02:38:58.625Z,100992.19
2022-10-17T02:41:01.119Z,100993.78
2022-10-17T02:43:05.199Z,100991.22
2022-10-17T02:45:08.035Z,100990.25
2022-10-17T02:47:29.379Z,100991.31
2022-10-17T02:49:42.003Z,100988.00
2022-10-17T02:51:53.478Z,100989.72
2022-10-17T02:53:58.329Z,100988.66
2022-10-17T02:56:08.641Z,100989.50
2022-10-17T02:58:18.780Z,100984.28
2022-10-17T03:00:22.751Z,100990.38
2022-10-17T03:02:25.434Z,100987.75
2022-10-17T03:04:27.542Z,100993.16
2022-10-17T03:06:29.660Z,100994.19
2022-10-17T03:08:31.865Z,100994.38
2022-10-17T03:10:35.620Z,100988.88
2022-10-17T03:12:38.100Z,101001.66
2022-10-17T03:14:40.089Z,101001.00
2022-10-17T03:16:42.517Z,101010.19
2022-10-17T03:18:46.661Z,101003.91
2022-10-17T03:20:51.469Z,100998.28
2022-10-17T03:22:53.624Z,101002.75
2022-10-17T03:24:57.124Z,101003.56
2022-10-17T03:26:59.273Z,101005.44
2022-10-17T03:29:01.352Z,101008.91
2022-10-17T03:31:15.411Z,101008.31
2022-10-17T03:33:18.744Z,101007.19
2022-10-17T03:35:20.642Z,101010.84
2022-10-17T03:37:25.841Z,101015.25
2022-10-17T03:39:28.160Z,101017.03
2022-10-17T03:41:30.285Z,101015.25
2022-10-17T03:43:32.641Z,101015.22
2022-10-17T03:45:34.795Z,101017.97
2022-10-17T03:47:36.781Z,101018.91
2022-10-17T03:49:38.754Z,101017.09
2022-10-17T03:51:41.074Z,101012.59
2022-10-17T03:53:47.688Z,101019.81
2022-10-17T03:55:49.919Z,101018.94
2022-10-17T03:57:52.938Z,101018.06
2022-10-17T03:59:56.613Z,101022.63
2022-10-17T04:01:59.559Z,101018.53
2022-10-17T04:04:03.107Z,101018.22
2022-10-17T04:06:08.847Z,101029.03
2022-10-17T04:08:12.301Z,101022.75
2022-10-17T04:10:43.194Z,101017.44
2022-10-17T04:12:47.714Z,101020.16
2022-10-17T04:14:49.789Z,101022.75
2022-10-17T04:16:53.658Z,101021.88
2022-10-17T04:18:58.777Z,101022.84
2022-10-17T04:21:05.324Z,101022.13
2022-10-17T04:23:07.736Z,101024.69
2022-10-17T04:25:10.094Z,101022.94
2022-10-17T04:27:15.524Z,101024.81
2022-10-17T04:29:20.999Z,101020.41
2022-10-17T04:31:26.116Z,101024.88
2022-10-17T04:33:39.462Z,101037.63
2022-10-17T04:35:42.284Z,101041.13
2022-10-17T04:37:50.225Z,101040.28
2022-10-17T04:39:54.787Z,101046.63
2022-10-17T04:41:57.213Z,101040.34
2022-10-17T04:44:02.204Z,101041.22
2022-10-17T04:46:10.251Z,101044.81
2022-10-17T04:48:12.204Z,101044.91
2022-10-17T04:50:14.286Z,101044.88
2022-10-17T04:52:17.080Z,101044.00
2022-10-17T04:54:20.155Z,101052.16
2022-10-17T04:56:27.460Z,101046.81
2022-10-17T04:58:30.512Z,101047.84
2022-10-17T05:00:32.782Z,101053.31
2022-10-17T05:02:38.882Z,101061.44
2022-10-17T05:04:40.846Z,101056.16
2022-10-17T05:06:43.897Z,101057.84
2022-10-17T05:09:08.745Z,101060.75
2022-10-17T05:11:27.640Z,101058.25
2022-10-17T05:13:29.892Z,101060.66
2022-10-17T05:15:32.126Z,101058.03
2022-10-17T05:17:34.079Z,101059.00
2022-10-17T05:19:36.255Z,101059.19
2022-10-17T05:21:38.246Z,101061.91
2022-10-17T05:23:40.807Z,101064.53
2022-10-17T05:25:42.818Z,101061.81
2022-10-17T05:27:44.629Z,101069.75
2022-10-17T05:29:46.859Z,101067.00
2022-10-17T05:34:11.604Z,101070.28
2022-10-17T05:36:16.412Z,101079.06
2022-10-17T05:38:18.641Z,101080.66
2022-10-17T05:40:22.066Z,101090.31
2022-10-17T05:42:26.929Z,101092.72
2022-10-17T05:44:28.814Z,101100.47
2022-10-17T05:46:34.427Z,101093.75
2022-10-17T05:48:37.017Z,101106.94
2022-10-17T05:50:39.850Z,101103.03
2022-10-17T05:52:47.349Z,101105.34
2022-10-17T05:54:51.331Z,101108.78
2022-10-17T05:56:54.599Z,101108.53
2022-10-17T05:59:01.214Z,101120.03
2022-10-17T06:01:20.317Z,101116.91
2022-10-17T06:03:23.110Z,101113.84
2022-10-17T06:05:25.171Z,101123.53
2022-10-17T06:07:27.375Z,101124.22
2022-10-17T06:09:29.602Z,101125.78
2022-10-17T06:11:31.949Z,101133.66
2022-10-17T06:13:34.742Z,101130.75
2022-10-17T06:23:45.920Z,101138.63
2022-10-17T06:26:06.628Z,101142.09
2022-10-17T06:28:11.685Z,101149.97
2022-10-17T06:30:14.290Z,101148.78
2022-10-17T06:32:16.425Z,101147.66
2022-10-17T06:34:24.018Z,101147.66
2022-10-17T06:36:26.464Z,101153.53
2022-10-17T06:38:28.400Z,101159.84
2022-10-17T06:40:32.804Z,101159.44
2022-10-17T06:42:34.913Z,101159.25
2022-10-17T06:45:00.390Z,101166.41
2022-10-17T06:47:19.936Z,101169.22
2022-10-17T06:49:23.162Z,101172.25
2022-10-17T06:51:27.286Z,101175.41
2022-10-17T06:53:33.828Z,101176.13
2022-10-17T06:56:03.094Z,101176.50
2022-10-17T06:58:29.216Z,101185.38
2022-10-17T07:00:40.519Z,101184.09
2022-10-17T07:02:43.943Z,101184.44
2022-10-17T07:04:47.462Z,101190.13
2022-10-17T07:06:49.365Z,101189.84
2022-10-17T07:08:55.827Z,101181.97
2022-10-17T07:10:58.053Z,101187.28
2022-10-17T07:13:01.721Z,101179.53
2022-10-17T07:15:07.257Z,101185.00
2022-10-17T07:17:10.625Z,101194.13
2022-10-17T07:19:13.025Z,101188.16
2022-10-17T07:21:14.871Z,101195.63
2022-10-17T07:23:17.069Z,101200.88
2022-10-17T07:25:19.334Z,101204.69
2022-10-17T07:27:27.909Z,101204.97
2022-10-17T07:29:29.943Z,101202.59
2022-10-17T07:31:49.888Z,101208.56
2022-10-17T07:33:51.961Z,101209.00
2022-10-17T07:35:53.794Z,101212.31
2022-10-17T07:37:55.655Z,101209.03
2022-10-17T07:39:57.604Z,101211.38
2022-10-17T07:41:59.707Z,101215.66
2022-10-17T07:44:01.657Z,101213.56
2022-10-17T07:46:11.485Z,101215.84
2022-10-17T07:48:14.066Z,101212.03
2022-10-17T07:50:16.600Z,101218.06
2022-10-17T07:52:22.241Z,101222.41
2022-10-17T07:54:24.326Z,101218.56
2022-10-17T07:56:26.267Z,101222.66
2022-10-17T07:58:28.845Z,101227.88
2022-10-17T08:00:30.560Z,101221.94
2022-10-17T08:02:32.799Z,101225.13
2022-10-17T08:04:36.474Z,101224.81
2022-10-17T08:06:38.554Z,101227.06
2022-10-17T08:08:41.001Z,101230.50
2022-10-17T08:11:17.269Z,101226.44
2022-10-17T08:13:19.025Z,101226.72
2022-10-17T08:15:21.148Z,101219.13
2022-10-17T08:17:23.013Z,101220.66
2022-10-17T08:19:24.894Z,101229.16
2022-10-17T08:21:26.813Z,101220.97
2022-10-17T08:23:29.217Z,101220.66
2022-10-17T08:25:31.218Z,101217.41
2022-10-17T08:27:34.237Z,101222.31
2022-10-17T08:29:35.979Z,101210.03
2022-10-17T08:31:37.974Z,101214.94
2022-10-17T08:33:40.565Z,101210.03
2022-10-17T08:35:42.384Z,101213.19
2022-10-17T08:37:44.144Z,101217.50
2022-10-17T08:39:45.951Z,101218.16
2022-10-17T08:42:03.211Z,101216.00
2022-10-17T08:44:25.550Z,101218.25
2022-10-17T08:46:35.647Z,101207.63
2022-10-17T08:48:46.483Z,101216.03
2022-10-17T08:50:53.290Z,101210.94
2022-10-17T08:53:03.041Z,101210.66
2022-10-17T08:55:15.646Z,101213.13
2022-10-17T08:57:18.103Z,101213.75
2022-10-17T08:59:28.738Z,101208.03
2022-10-17T09:01:50.209Z,101213.25
2022-10-17T09:04:16.534Z,101212.59
2022-10-17T09:06:25.390Z,101206.69
2022-10-17T09:08:51.660Z,101207.13
2022-10-17T09:10:58.920Z,101211.28
2022-10-17T09:13:21.810Z,101216.66
2022-10-17T09:15:48.178Z,101210.91
2022-10-17T09:18:09.982Z,101215.06
2022-10-17T09:20:16.214Z,101214.81
2022-10-17T09:22:25.586Z,101219.38
2022-10-17T09:24:45.123Z,101219.97
2022-10-17T09:26:47.351Z,101211.06
2022-10-17T09:28:59.531Z,101213.72
2022-10-17T09:31:05.083Z,101215.00
2022-10-17T09:33:34.297Z,101214.03
2022-10-17T09:35:42.575Z,101212.78
2022-10-17T09:37:46.235Z,101212.63
2022-10-17T09:39:48.884Z,101209.69
2022-10-17T09:41:52.380Z,101203.84
2022-10-17T09:43:58.374Z,101212.06
2022-10-17T09:46:06.686Z,101207.91
2022-10-17T09:48:15.243Z,101217.66
2022-10-17T09:50:35.357Z,101211.44
2022-10-17T09:52:48.800Z,101215.91
2022-10-17T09:55:00.217Z,101220.31
2022-10-17T09:57:05.743Z,101221.81
2022-10-17T09:59:30.865Z,101216.31
2022-10-17T10:01:34.871Z,101213.31
2022-10-17T10:03:36.691Z,101212.31
2022-10-17T10:05:39.903Z,101208.44
2022-10-17T10:07:42.018Z,101203.75
2022-10-17T10:09:47.456Z,101208.03
2022-10-17T10:11:56.918Z,101202.56
2022-10-17T10:14:12.420Z,101202.56
2022-10-17T10:16:16.434Z,101202.88
2022-10-17T10:20:37.708Z,101201.31
2022-10-17T10:22:39.928Z,101198.47
2022-10-17T10:24:42.387Z,101196.34
2022-10-17T10:26:48.324Z,101203.38
2022-10-17T10:28:55.663Z,101196.56
2022-10-17T10:31:00.520Z,101202.81
2022-10-17T10:33:02.706Z,101191.66
2022-10-17T10:35:19.103Z,101183.84
2022-10-17T10:37:22.923Z,101189.63
2022-10-17T10:39:39.140Z,101193.31
2022-10-17T10:41:48.846Z,101184.22
2022-10-17T10:43:52.207Z,101183.63
2022-10-17T10:45:57.280Z,101182.22
2022-10-17T10:48:01.754Z,101183.72
2022-10-17T10:50:21.245Z,101184.59
2022-10-17T10:52:41.585Z,101177.53
2022-10-17T10:54:53.472Z,101170.66
2022-10-17T10:57:03.711Z,101173.00
2022-10-17T10:59:29.728Z,101170.94
2022-10-17T11:01:34.919Z,101163.19
2022-10-17T11:03:55.727Z,101167.69
2022-10-17T11:06:17.209Z,101167.69
2022-10-17T11:08:38.526Z,101160.69
2022-10-17T11:11:05.604Z,101162.34
2022-10-17T11:13:23.591Z,101160.19
2022-10-17T11:15:37.261Z,101159.03
2022-10-17T11:17:50.710Z,101153.78
2022-10-17T11:20:04.470Z,101153.03
2022-10-17T11:22:23.972Z,101159.28
2022-10-17T11:24:57.217Z,101156.66
2022-10-17T11:27:05.287Z,101144.69
2022-10-17T11:29:09.237Z,101138.88
2022-10-17T11:31:14.269Z,101135.91
2022-10-17T11:33:24.390Z,101135.50
2022-10-17T11:35:46.214Z,101129.03
2022-10-17T11:38:09.685Z,101139.00
2022-10-17T11:40:35.615Z,101130.78
2022-10-17T11:42:59.657Z,101130.38
2022-10-17T11:45:15.276Z,101135.41
2022-10-17T11:47:29.566Z,101124.56
2022-10-17T11:49:44.501Z,101126.63
2022-10-17T11:52:01.913Z,101129.84
2022-10-17T11:54:16.535Z,101130.91
2022-10-17T11:56:26.080Z,101130.69
2022-10-17T11:58:42.033Z,101128.97
2022-10-17T12:00:51.798Z,101127.31
2022-10-17T12:03:40.172Z,101126.63
2022-10-17T12:06:08.468Z,101130.47
2022-10-17T12:08:41.877Z,101133.66
2022-10-17T12:11:01.204Z,101122.38
2022-10-17T12:13:28.581Z,101120.19
2022-10-17T12:15:31.557Z,101119.97
2022-10-17T12:17:39.407Z,101121.59
2022-10-17T12:19:42.476Z,101117.22
2022-10-17T12:22:07.266Z,101117.22
2022-10-17T12:24:32.870Z,101118.09
2022-10-17T12:26:34.939Z,101116.13
2022-10-17T12:28:47.827Z,101115.22
2022-10-17T12:31:01.452Z,101121.47
2022-10-17T12:33:22.697Z,101117.75
2022-10-17T12:35:27.118Z,101107.63
2022-10-17T12:37:57.330Z,101113.78
2022-10-17T12:40:03.111Z,101110.72
2022-10-17T12:42:32.406Z,101112.69
2022-10-17T12:44:35.055Z,101109.84
2022-10-17T12:47:10.843Z,101108.09
2022-10-17T12:49:49.161Z,101110.94
2022-10-17T12:52:29.914Z,101111.72
2022-10-17T12:54:47.610Z,101109.06
2022-10-17T12:56:55.676Z,101106.00
2022-10-17T12:58:59.467Z,101104.34
2022-10-17T13:01:23.235Z,101103.16
2022-10-17T13:03:31.849Z,101103.34
2022-10-17T13:05:37.267Z,101096.03
2022-10-17T13:07:42.789Z,101097.00
2022-10-17T13:09:45.207Z,101092.38
2022-10-17T13:11:49.836Z,101090.53
2022-10-17T13:13:56.014Z,101088.97
2022-10-17T13:15:57.826Z,101083.16
2022-10-17T13:18:01.151Z,101091.63
2022-10-17T13:20:25.475Z,101078.63
2022-10-17T13:22:32.977Z,101088.31
2022-10-17T13:24:40.474Z,101089.59
2022-10-17T13:26:46.094Z,101094.13
2022-10-17T13:31:35.894Z,101091.16
2022-10-17T13:33:40.472Z,101089.97
2022-10-17T13:35:59.573Z,101091.59
2022-10-17T13:38:07.011Z,101087.09
2022-10-17T13:40:40.367Z,101084.00
2022-10-17T13:42:41.461Z,101074.69
2022-10-17T13:44:43.628Z,101073.03
2022-10-17T13:46:46.152Z,101065.00
2022-10-17T13:48:49.702Z,101067.63
2022-10-17T13:50:57.182Z,101071.47
2022-10-17T13:53:18.387Z,101073.09
2022-10-17T13:55:23.752Z,101072.22
2022-10-17T13:57:34.118Z,101070.56
2022-10-17T13:59:42.202Z,101064.31
2022-10-17T14:01:44.277Z,101065.41
2022-10-17T14:03:48.890Z,101072.53
2022-10-17T14:06:03.214Z,101065.63
2022-10-17T14:08:11.834Z,101060.13
2022-10-17T14:10:24.901Z,101067.75
2022-10-17T14:12:26.819Z,101062.41
2022-10-17T14:14:32.166Z,101057.88
2022-10-17T14:16:42.205Z,101059.19
2022-10-17T14:18:56.364Z,101057.53
2022-10-17T14:23:42.709Z,101065.72
2022-10-17T14:25:44.592Z,101067.06
2022-10-17T14:27:58.068Z,101062.97
2022-10-17T14:30:03.611Z,101063.19
2022-10-17T14:32:08.761Z,101054.97
2022-10-17T14:34:23.667Z,101057.91
2022-10-17T14:36:39.023Z,101055.56
2022-10-17T14:38:47.432Z,101058.22
2022-10-17T14:41:09.599Z,101062.84
2022-10-17T14:43:25.499Z,101051.38
2022-10-17T14:45:32.166Z,101057.75
2022-10-17T14:47:50.101Z,101054.44
2022-10-17T14:50:06.077Z,101053.41
2022-10-17T14:52:35.070Z,101063.50
2022-10-17T14:54:38.380Z,101059.84
2022-10-17T14:56:43.111Z,101058.31
2022-10-17T14:58:44.944Z,101060.28
2022-10-17T15:00:46.722Z,101055.31
2022-10-17T15:02:50.365Z,101065.41
2022-10-17T15:04:53.180Z,101061.16
2022-10-17T15:06:55.508Z,101057.84
2022-10-17T15:08:58.137Z,101053.53
2022-10-17T15:11:00.103Z,101054.13
2022-10-17T15:13:27.216Z,101055.31
2022-10-17T15:15:25.358Z,101062.38
2022-10-17T15:17:30.222Z,101056.91
2022-10-17T15:19:32.190Z,101060.81
2022-10-17T15:21:40.512Z,101055.44
2022-10-17T15:23:45.559Z,101066.56
2022-10-17T15:25:47.524Z,101059.53
2022-10-17T15:27:49.580Z,101064.22
2022-10-17T15:29:53.083Z,101069.91
2022-10-17T15:31:54.964Z,101068.31
2022-10-17T15:33:57.298Z,101067.84
2022-10-17T15:38:01.141Z,101076.28
2022-10-17T15:40:03.377Z,101065.78
2022-10-17T15:42:09.280Z,101067.72
2022-10-17T15:44:11.407Z,101076.88
2022-10-17T15:46:22.714Z,101087.22
2022-10-17T15:48:29.760Z,101081.34
2022-10-17T15:50:32.636Z,101082.44
2022-10-17T15:52:35.011Z,101082.34
2022-10-17T15:54:36.966Z,101081.81
2022-10-17T15:56:41.549Z,101078.41
2022-10-17T15:58:43.488Z,101082.41
2022-10-17T16:00:46.077Z,101079.84
2022-10-17T16:02:49.498Z,101076.41
2022-10-17T16:04:52.130Z,101084.69
2022-10-17T16:06:54.002Z,101079.41
2022-10-17T16:08:55.970Z,101080.47
2022-10-17T16:14:58.365Z,101084.75
2022-10-17T16:17:00.911Z,101086.69
2022-10-17T16:19:03.480Z,101084.06
2022-10-17T16:21:07.085Z,101085.22
2022-10-17T16:23:11.458Z,101087.34
2022-10-17T16:25:21.564Z,101081.25
2022-10-17T16:27:23.520Z,101083.38
2022-10-17T16:29:25.655Z,101085.38
2022-10-17T16:31:30.848Z,101095.59
2022-10-17T16:33:32.870Z,101094.22
2022-10-17T16:35:37.533Z,101091.63
2022-10-17T16:37:39.917Z,101094.56
2022-10-17T16:39:42.089Z,101095.72
2022-10-17T16:41:44.033Z,101096.84
2022-10-17T16:47:20.511Z,101101.09
2022-10-17T16:49:22.429Z,101103.88
2022-10-17T16:51:24.899Z,101107.44
2022-10-17T16:53:26.942Z,101115.63
2022-10-17T16:55:29.004Z,101106.03
2022-10-17T16:57:31.166Z,101107.25
2022-10-17T16:59:33.298Z,101115.53
2022-10-17T17:01:35.275Z,101114.81
2022-10-17T17:03:38.391Z,101119.75
2022-10-17T17:05:40.318Z,101111.88
2022-10-17T17:07:42.472Z,101113.91
2022-10-17T17:09:44.404Z,101115.94
2022-10-17T17:11:46.490Z,101117.88
2022-10-17T17:13:48.770Z,101117.94
2022-10-17T17:15:53.822Z,101120.84
2022-10-17T17:18:02.685Z,101120.09
2022-10-17T17:20:07.291Z,101119.31
2022-10-17T17:22:09.211Z,101122.91
2022-10-17T17:24:11.509Z,101128.53
2022-10-17T17:26:19.204Z,101122.44
2022-10-17T17:28:21.782Z,101120.84
2022-10-17T17:30:23.994Z,101120.13
2022-10-17T17:32:25.870Z,101129.44
2022-10-17T17:34:27.888Z,101115.97
2022-10-17T17:36:33.901Z,101132.56
2022-10-17T17:38:37.048Z,101124.63
2022-10-17T17:40:50.362Z,101129.94
2022-10-17T17:42:53.108Z,101131.63
2022-10-17T17:44:55.058Z,101134.75
2022-10-17T17:46:57.110Z,101129.47
2022-10-17T17:48:59.082Z,101130.41
2022-10-17T17:51:06.328Z,101132.59
2022-10-17T17:53:09.316Z,101127.03
2022-10-17T17:55:12.033Z,101130.97
2022-10-17T17:57:14.002Z,101136.75
2022-10-17T17:59:16.100Z,101128.00
2022-10-17T18:01:22.476Z,101129.91
2022-10-17T18:03:25.274Z,101123.72
2022-10-17T18:05:27.720Z,101125.78
2022-10-17T18:07:30.572Z,101129.72
2022-10-17T18:09:32.908Z,101124.41
2022-10-17T18:11:36.527Z,101127.22
2022-10-17T18:18:01.257Z,101137.06
2022-10-17T18:20:03.764Z,101135.88
2022-10-17T18:22:05.723Z,101135.81
2022-10-17T18:24:08.410Z,101137.72
2022-10-17T18:26:10.306Z,101139.47
2022-10-17T18:28:12.526Z,101135.94
2022-10-17T18:30:14.910Z,101136.97
2022-10-17T18:32:17.025Z,101137.06
2022-10-17T18:34:18.805Z,101139.94
2022-10-17T18:36:21.252Z,101140.97
2022-10-17T18:38:23.163Z,101133.88
2022-10-17T18:40:25.093Z,101137.69
2022-10-17T18:42:26.992Z,101141.56
2022-10-17T18:44:29.230Z,101146.19
2022-10-17T18:46:36.556Z,101146.47
2022-10-17T18:48:43.094Z,101147.50
2022-10-17T18:50:45.024Z,101144.78
2022-10-17T18:52:48.259Z,101139.47
2022-10-17T18:54:50.128Z,101145.94
2022-10-17T18:56:53.962Z,101145.16
2022-10-17T18:58:56.810Z,101148.97
2022-10-17T19:01:15.497Z,101142.00
2022-10-17T19:03:18.371Z,101140.16
2022-10-17T19:05:20.328Z,101143.00
2022-10-17T19:07:22.653Z,101139.81
2022-10-17T19:09:24.570Z,101137.09
2022-10-17T19:11:28.368Z,101137.19
2022-10-17T19:13:31.873Z,101132.00
2022-10-17T19:15:33.814Z,101130.31
2022-10-17T19:17:35.691Z,101130.47
2022-10-17T19:19:37.612Z,101133.28
2022-10-17T19:21:39.717Z,101132.38
2022-10-17T19:23:42.339Z,101136.06
2022-10-17T19:25:44.222Z,101131.63
2022-10-17T19:27:46.137Z,101126.25
2022-10-17T19:29:48.122Z,101125.50
2022-10-17T19:31:50.256Z,101127.41
2022-10-17T19:33:53.340Z,101130.38
2022-10-17T19:36:00.554Z,101137.22
2022-10-17T19:38:02.754Z,101130.03
2022-10-17T19:40:05.520Z,101135.66
2022-10-17T19:42:07.396Z,101136.59
2022-10-17T19:44:09.659Z,101134.03
2022-10-17T19:46:17.295Z,101135.03
2022-10-17T19:48:19.262Z,101139.59
2022-10-17T19:50:21.169Z,101134.22
2022-10-17T19:52:23.371Z,101134.34
2022-10-17T19:54:25.336Z,101132.59
2022-10-17T19:56:29.452Z,101139.94
2022-10-17T19:58:33.492Z,101136.38
2022-10-17T20:00:35.512Z,101133.81
2022-10-17T20:02:37.317Z,101135.91
2022-10-17T20:04:49.593Z,101137.72
2022-10-17T20:07:01.533Z,101139.19
2022-10-17T20:09:05.545Z,101136.66
2022-10-17T20:11:10.911Z,101142.22
2022-10-17T20:13:14.185Z,101141.22
2022-10-17T20:15:16.425Z,101139.63
2022-10-17T20:17:18.504Z,101139.31
2022-10-17T20:19:20.804Z,101143.72
2022-10-17T20:21:28.402Z,101140.31
2022-10-17T20:23:30.287Z,101142.81
2022-10-17T20:30:17.620Z,101140.59
2022-10-17T20:32:19.601Z,101138.38
2022-10-17T20:34:21.458Z,101128.31
2022-10-17T20:36:23.942Z,101127.25
2022-10-17T20:42:29.438Z,101130.16
2022-10-17T20:44:31.379Z,101123.78
2022-10-17T20:46:37.837Z,101125.69
2022-10-17T20:48:41.535Z,101126.91
2022-10-17T20:50:44.584Z,101123.50
2022-10-17T20:52:46.448Z,101117.50
2022-10-17T20:54:48.371Z,101126.06
2022-10-17T20:56:50.226Z,101116.94
2022-10-17T20:58:54.738Z,101133.19
2022-10-17T21:00:56.749Z,101125.84
2022-10-17T21:02:59.376Z,101128.56
2022-10-17T21:05:01.272Z,101134.91
2022-10-17T21:07:03.891Z,101136.81
2022-10-17T21:09:06.503Z,101131.91
2022-10-17T21:11:13.681Z,101132.00
2022-10-17T21:13:15.516Z,101134.81
2022-10-17T21:15:17.708Z,101133.84
2022-10-17T21:17:19.523Z,101135.63
2022-10-17T21:19:21.952Z,101130.00
2022-10-17T21:21:27.101Z,101137.22
2022-10-17T21:23:28.920Z,101133.53
2022-10-17T21:25:31.149Z,101130.81
2022-10-17T21:27:33.596Z,101133.53
2022-10-17T21:29:35.348Z,101134.41
2022-10-17T21:31:39.070Z,101135.38
2022-10-17T21:33:42.267Z,101129.06
2022-10-17T21:35:44.300Z,101134.50
2022-10-17T21:37:46.077Z,101135.56
2022-10-17T21:39:48.014Z,101133.72
2022-10-17T21:45:49.461Z,101131.22
2022-10-17T21:48:11.855Z,101123.13
2022-10-17T21:50:13.214Z,101119.56
2022-10-17T21:52:15.172Z,101130.59
2022-10-17T21:54:18.791Z,101122.47
2022-10-17T21:56:23.731Z,101126.25
2022-10-17T21:58:25.803Z,101124.47
2022-10-17T22:00:27.550Z,101122.59
2022-10-17T22:02:29.699Z,101120.88
2022-10-17T22:04:35.613Z,101125.56
2022-10-17T22:06:40.636Z,101110.97
2022-10-17T22:08:43.093Z,101121.97
2022-10-17T22:10:45.137Z,101115.69
2022-10-17T22:12:46.990Z,101118.50
2022-10-17T22:14:48.947Z,101113.13
2022-10-17T22:16:51.470Z,101119.50
2022-10-17T22:19:00.507Z,101119.72
2022-10-17T22:21:07.882Z,101107.94
2022-10-17T22:23:09.683Z,101114.28
2022-10-17T22:25:11.437Z,101113.47
2022-10-17T22:27:13.249Z,101120.81
2022-10-17T22:29:15.764Z,101117.25
2022-10-17T22:31:17.709Z,101111.88
2022-10-17T22:35:24.598Z,101110.16
2022-10-17T22:37:26.422Z,101100.38
2022-10-17T22:39:52.979Z,101104.59
2022-10-17T22:41:54.900Z,101109.69
2022-10-17T22:43:57.011Z,101109.81
2022-10-17T22:46:04.015Z,101114.31
2022-10-17T22:48:07.545Z,101108.03
2022-10-17T22:50:09.671Z,101108.09
2022-10-17T22:52:11.573Z,101109.91
2022-10-17T22:54:13.609Z,101108.25
2022-10-17T22:56:18.664Z,101109.19
2022-10-17T22:58:21.287Z,101102.88
2022-10-17T23:00:23.279Z,101100.28
2022-10-17T23:02:25.361Z,101102.13
2022-10-17T23:04:27.579Z,101099.47
2022-10-17T23:06:29.639Z,101095.09
2022-10-17T23:08:31.786Z,101097.88
2022-10-17T23:10:34.382Z,101092.44
2022-10-17T23:12:36.411Z,101095.28
2022-10-17T23:14:43.410Z,101092.59
2022-10-17T23:16:45.666Z,101089.88
2022-10-17T23:18:49.785Z,101083.72
2022-10-17T23:20:52.126Z,101088.19
2022-10-17T23:22:54.285Z,101090.88
2022-10-17T23:24:56.244Z,101087.41
2022-10-17T23:26:58.062Z,101086.63
2022-10-17T23:29:00.072Z,101091.03
2022-10-17T23:31:14.526Z,101092.25
2022-10-17T23:33:16.552Z,101099.41
2022-10-17T23:35:18.458Z,101091.31
2022-10-17T23:37:20.349Z,101088.72
2022-10-17T23:39:22.389Z,101087.91
2022-10-17T23:41:24.768Z,101088.88
2022-10-17T23:43:26.844Z,101091.59
2022-10-17T23:45:29.380Z,101083.66
2022-10-17T23:47:33.536Z,101084.59
2022-10-17T23:49:35.898Z,101077.41
2022-10-17T23:51:37.691Z,101081.03
2022-10-17T23:53:40.357Z,101079.31
2022-10-17T23:55:42.122Z,101078.56
2022-10-17T23:57:44.129Z,101078.56
2022-10-17T23:59:46.224Z,101080.44
